This is the latest recevied weather packets stored in our database for station/object E24CR-1. If no packets are shown the sender has not sent any weather packets the latest 10 day(s).
| Time | Temp. | Humidity | Pressure | Rain* | Wind** | Luminosity | Snow |
|---|---|---|---|---|---|---|---|
| 1777883923 | 38.33° C | 25% | 948 hPa | - | - | 0 W/m² | - |
| 1777883299 | 39.44° C | 26% | 949 hPa | - | - | 0 W/m² | - |
| 1777882675 | 40.56° C | 25% | 949 hPa | - | - | 0 W/m² | - |
| 1777882051 | 38.89° C | 26% | 949 hPa | - | - | 0 W/m² | - |
| 1777881427 | 38.89° C | 27% | 949 hPa | - | - | 0 W/m² | - |
| 1777880803 | 38.33° C | 28% | 949 hPa | - | - | 0 W/m² | - |
| 1777880178 | 39.44° C | 28% | 949 hPa | - | - | 0 W/m² | - |
| 1777879554 | 38.33° C | 28% | 950 hPa | - | - | 0 W/m² | - |
| 1777878930 | 38.89° C | 27% | 950 hPa | - | - | 0 W/m² | - |
| 1777878306 | 39.44° C | 27% | 950 hPa | - | - | 0 W/m² | - |
| 1777877682 | 39.44° C | 27% | 950 hPa | - | - | 0 W/m² | - |
| 1777877058 | 38.33° C | 28% | 951 hPa | - | - | 0 W/m² | - |
| 1777876433 | 38.89° C | 27% | 951 hPa | - | - | 0 W/m² | - |
| 1777875809 | 37.78° C | 29% | 951 hPa | - | - | 0 W/m² | - |
| 1777875184 | 38.89° C | 28% | 951 hPa | - | - | 0 W/m² | - |
| 1777874560 | 38.89° C | 27% | 951 hPa | - | - | 0 W/m² | - |
| 1777873936 | 36.67° C | 30% | 952 hPa | - | - | 0 W/m² | - |
| 1777873312 | 38.33° C | 27% | 952 hPa | - | - | 0 W/m² | - |
| 1777872688 | 38.89° C | 26% | 952 hPa | - | - | 0 W/m² | - |
| 1777872063 | 41.11° C | 26% | 952 hPa | - | - | 0 W/m² | - |
| 1777871439 | 39.44° C | 27% | 952 hPa | - | - | 0 W/m² | - |
| 1777870815 | 38.89° C | 29% | 952 hPa | - | - | 0 W/m² | - |
| 1777870191 | 37.22° C | 31% | 953 hPa | - | - | 0 W/m² | - |
| 1777869566 | 37.22° C | 32% | 953 hPa | - | - | 0 W/m² | - |
| 1777868942 | 38.33° C | 32% | 953 hPa | - | - | 0 W/m² | - |
* Rain since midnight (hover to see other rain measurements)
** Current wind speed in m/s (hover to see current wind gust speed)